sensor_id;sensor_type;location;lat;lon;timestamp;P1;durP1;ratioP1;P2;durP2;ratioP2
17424;SDS011;8830;50.978;5.058;2023-04-15T00:01:16;4.53;;;2.80;;
17424;SDS011;8830;50.978;5.058;2023-04-15T00:03:43;3.10;;;2.63;;
17424;SDS011;8830;50.978;5.058;2023-04-15T00:06:11;4.43;;;3.17;;
17424;SDS011;8830;50.978;5.058;2023-04-15T00:08:38;4.50;;;2.53;;
17424;SDS011;8830;50.978;5.058;2023-04-15T00:11:05;5.73;;;3.00;;
17424;SDS011;8830;50.978;5.058;2023-04-15T00:13:33;4.60;;;3.50;;
17424;SDS011;8830;50.978;5.058;2023-04-15T00:16:01;4.10;;;2.60;;
17424;SDS011;8830;50.978;5.058;2023-04-15T00:18:29;5.73;;;2.70;;
17424;SDS011;8830;50.978;5.058;2023-04-15T00:20:57;3.00;;;2.70;;
17424;SDS011;8830;50.978;5.058;2023-04-15T00:23:24;10.13;;;2.97;;
17424;SDS011;8830;50.978;5.058;2023-04-15T00:25:51;6.40;;;3.00;;
17424;SDS011;8830;50.978;5.058;2023-04-15T00:28:18;4.93;;;3.00;;
17424;SDS011;8830;50.978;5.058;2023-04-15T00:30:45;2.77;;;2.57;;
17424;SDS011;8830;50.978;5.058;2023-04-15T00:33:14;6.10;;;2.50;;
17424;SDS011;8830;50.978;5.058;2023-04-15T00:35:42;7.83;;;3.20;;
17424;SDS011;8830;50.978;5.058;2023-04-15T00:38:09;5.30;;;3.00;;
17424;SDS011;8830;50.978;5.058;2023-04-15T00:40:36;3.37;;;2.57;;
17424;SDS011;8830;50.978;5.058;2023-04-15T00:43:04;3.90;;;2.60;;
17424;SDS011;8830;50.978;5.058;2023-04-15T00:45:31;4.10;;;2.77;;
17424;SDS011;8830;50.978;5.058;2023-04-15T00:47:58;3.40;;;2.70;;
17424;SDS011;8830;50.978;5.058;2023-04-15T00:50:30;3.43;;;2.70;;
17424;SDS011;8830;50.978;5.058;2023-04-15T00:52:58;7.23;;;3.37;;
17424;SDS011;8830;50.978;5.058;2023-04-15T00:55:25;5.53;;;3.27;;
17424;SDS011;8830;50.978;5.058;2023-04-15T00:57:52;5.77;;;3.57;;
17424;SDS011;8830;50.978;5.058;2023-04-15T01:00:20;4.17;;;2.80;;
17424;SDS011;8830;50.978;5.058;2023-04-15T01:02:47;6.60;;;3.00;;
17424;SDS011;8830;50.978;5.058;2023-04-15T01:05:15;5.07;;;3.10;;
17424;SDS011;8830;50.978;5.058;2023-04-15T01:07:45;4.30;;;3.10;;
17424;SDS011;8830;50.978;5.058;2023-04-15T01:10:14;5.33;;;3.60;;
17424;SDS011;8830;50.978;5.058;2023-04-15T01:12:41;3.40;;;3.03;;
17424;SDS011;8830;50.978;5.058;2023-04-15T01:15:09;3.50;;;3.17;;
17424;SDS011;8830;50.978;5.058;2023-04-15T01:17:36;9.30;;;3.43;;
17424;SDS011;8830;50.978;5.058;2023-04-15T01:20:04;4.80;;;3.57;;
17424;SDS011;8830;50.978;5.058;2023-04-15T01:22:34;5.63;;;3.03;;
17424;SDS011;8830;50.978;5.058;2023-04-15T01:25:05;3.73;;;2.97;;
17424;SDS011;8830;50.978;5.058;2023-04-15T01:27:40;4.47;;;3.23;;
17424;SDS011;8830;50.978;5.058;2023-04-15T01:30:07;3.53;;;3.03;;
17424;SDS011;8830;50.978;5.058;2023-04-15T01:32:36;8.13;;;3.93;;
17424;SDS011;8830;50.978;5.058;2023-04-15T01:35:05;4.87;;;3.10;;
17424;SDS011;8830;50.978;5.058;2023-04-15T01:37:33;5.13;;;3.03;;
17424;SDS011;8830;50.978;5.058;2023-04-15T01:40:00;3.23;;;2.70;;
17424;SDS011;8830;50.978;5.058;2023-04-15T01:42:27;3.50;;;2.73;;
17424;SDS011;8830;50.978;5.058;2023-04-15T01:44:56;5.70;;;3.13;;
17424;SDS011;8830;50.978;5.058;2023-04-15T01:47:24;4.67;;;3.17;;
17424;SDS011;8830;50.978;5.058;2023-04-15T01:49:52;5.03;;;3.37;;
17424;SDS011;8830;50.978;5.058;2023-04-15T01:52:20;6.07;;;3.30;;
17424;SDS011;8830;50.978;5.058;2023-04-15T01:54:47;3.43;;;3.00;;
17424;SDS011;8830;50.978;5.058;2023-04-15T01:57:14;3.87;;;2.60;;
17424;SDS011;8830;50.978;5.058;2023-04-15T01:59:43;3.47;;;2.87;;
17424;SDS011;8830;50.978;5.058;2023-04-15T02:02:11;5.23;;;3.27;;
17424;SDS011;8830;50.978;5.058;2023-04-15T02:04:38;5.57;;;3.00;;
17424;SDS011;8830;50.978;5.058;2023-04-15T02:07:05;4.83;;;3.27;;
17424;SDS011;8830;50.978;5.058;2023-04-15T02:09:32;5.17;;;3.10;;
17424;SDS011;8830;50.978;5.058;2023-04-15T02:11:59;6.50;;;3.30;;
17424;SDS011;8830;50.978;5.058;2023-04-15T02:14:27;5.57;;;3.03;;
17424;SDS011;8830;50.978;5.058;2023-04-15T02:16:54;6.30;;;2.73;;
17424;SDS011;8830;50.978;5.058;2023-04-15T02:19:24;4.93;;;2.67;;
17424;SDS011;8830;50.978;5.058;2023-04-15T02:21:51;4.33;;;2.90;;
17424;SDS011;8830;50.978;5.058;2023-04-15T02:24:18;3.47;;;3.00;;
17424;SDS011;8830;50.978;5.058;2023-04-15T02:26:46;4.13;;;2.80;;
17424;SDS011;8830;50.978;5.058;2023-04-15T02:29:15;3.83;;;2.30;;
17424;SDS011;8830;50.978;5.058;2023-04-15T02:31:43;6.10;;;2.90;;
17424;SDS011;8830;50.978;5.058;2023-04-15T02:34:10;4.67;;;2.33;;
17424;SDS011;8830;50.978;5.058;2023-04-15T02:36:40;6.57;;;2.60;;
17424;SDS011;8830;50.978;5.058;2023-04-15T02:39:07;4.93;;;2.77;;
17424;SDS011;8830;50.978;5.058;2023-04-15T02:41:34;4.57;;;2.30;;
17424;SDS011;8830;50.978;5.058;2023-04-15T02:44:03;2.93;;;2.20;;
17424;SDS011;8830;50.978;5.058;2023-04-15T02:46:31;6.60;;;2.67;;
17424;SDS011;8830;50.978;5.058;2023-04-15T02:48:59;3.63;;;2.47;;
17424;SDS011;8830;50.978;5.058;2023-04-15T02:51:29;3.60;;;2.53;;
17424;SDS011;8830;50.978;5.058;2023-04-15T02:53:58;4.10;;;3.07;;
17424;SDS011;8830;50.978;5.058;2023-04-15T02:56:25;4.07;;;2.90;;
17424;SDS011;8830;50.978;5.058;2023-04-15T02:58:52;2.93;;;2.60;;
17424;SDS011;8830;50.978;5.058;2023-04-15T03:01:20;3.70;;;2.87;;
17424;SDS011;8830;50.978;5.058;2023-04-15T03:03:47;4.77;;;3.40;;
17424;SDS011;8830;50.978;5.058;2023-04-15T03:06:14;5.07;;;3.20;;
17424;SDS011;8830;50.978;5.058;2023-04-15T03:08:42;5.10;;;3.20;;
17424;SDS011;8830;50.978;5.058;2023-04-15T03:11:10;4.57;;;3.13;;
17424;SDS011;8830;50.978;5.058;2023-04-15T03:13:38;4.60;;;2.90;;
17424;SDS011;8830;50.978;5.058;2023-04-15T03:16:08;4.80;;;3.23;;
17424;SDS011;8830;50.978;5.058;2023-04-15T03:18:35;3.80;;;2.80;;
17424;SDS011;8830;50.978;5.058;2023-04-15T03:21:02;4.23;;;2.87;;
17424;SDS011;8830;50.978;5.058;2023-04-15T03:23:30;3.73;;;3.00;;
17424;SDS011;8830;50.978;5.058;2023-04-15T03:26:00;4.57;;;3.00;;
17424;SDS011;8830;50.978;5.058;2023-04-15T03:28:29;3.57;;;2.80;;
17424;SDS011;8830;50.978;5.058;2023-04-15T03:30:56;4.07;;;2.33;;
17424;SDS011;8830;50.978;5.058;2023-04-15T03:33:25;4.43;;;2.90;;
17424;SDS011;8830;50.978;5.058;2023-04-15T03:35:52;3.20;;;2.53;;
17424;SDS011;8830;50.978;5.058;2023-04-15T03:38:19;3.13;;;2.60;;
17424;SDS011;8830;50.978;5.058;2023-04-15T03:40:46;4.20;;;2.60;;
17424;SDS011;8830;50.978;5.058;2023-04-15T03:43:13;5.53;;;2.43;;
17424;SDS011;8830;50.978;5.058;2023-04-15T03:45:42;4.57;;;2.70;;
17424;SDS011;8830;50.978;5.058;2023-04-15T03:48:10;5.97;;;2.60;;
17424;SDS011;8830;50.978;5.058;2023-04-15T03:50:37;5.77;;;2.43;;
17424;SDS011;8830;50.978;5.058;2023-04-15T03:53:04;4.27;;;2.60;;
17424;SDS011;8830;50.978;5.058;2023-04-15T03:55:31;6.77;;;2.13;;
17424;SDS011;8830;50.978;5.058;2023-04-15T03:57:57;3.07;;;2.30;;
17424;SDS011;8830;50.978;5.058;2023-04-15T04:00:26;3.40;;;2.43;;
17424;SDS011;8830;50.978;5.058;2023-04-15T04:02:54;3.73;;;2.23;;
17424;SDS011;8830;50.978;5.058;2023-04-15T04:05:21;7.03;;;2.60;;
17424;SDS011;8830;50.978;5.058;2023-04-15T04:07:48;5.47;;;2.57;;
17424;SDS011;8830;50.978;5.058;2023-04-15T04:10:15;3.57;;;2.57;;
17424;SDS011;8830;50.978;5.058;2023-04-15T04:12:43;3.00;;;2.27;;
17424;SDS011;8830;50.978;5.058;2023-04-15T04:15:10;8.37;;;2.87;;
17424;SDS011;8830;50.978;5.058;2023-04-15T04:17:37;6.00;;;2.53;;
17424;SDS011;8830;50.978;5.058;2023-04-15T04:20:06;5.57;;;3.13;;
17424;SDS011;8830;50.978;5.058;2023-04-15T04:22:36;5.87;;;3.03;;
17424;SDS011;8830;50.978;5.058;2023-04-15T04:25:04;4.43;;;2.97;;
17424;SDS011;8830;50.978;5.058;2023-04-15T04:27:32;7.63;;;2.50;;
17424;SDS011;8830;50.978;5.058;2023-04-15T04:29:59;4.60;;;2.43;;
17424;SDS011;8830;50.978;5.058;2023-04-15T04:32:26;3.13;;;2.30;;
17424;SDS011;8830;50.978;5.058;2023-04-15T04:34:53;5.40;;;3.10;;
17424;SDS011;8830;50.978;5.058;2023-04-15T04:37:22;5.53;;;2.90;;
17424;SDS011;8830;50.978;5.058;2023-04-15T04:39:51;5.10;;;3.10;;
17424;SDS011;8830;50.978;5.058;2023-04-15T04:42:19;3.50;;;3.03;;
17424;SDS011;8830;50.978;5.058;2023-04-15T04:44:49;12.37;;;2.73;;
17424;SDS011;8830;50.978;5.058;2023-04-15T04:47:23;5.03;;;2.77;;
17424;SDS011;8830;50.978;5.058;2023-04-15T04:49:51;6.47;;;2.50;;
17424;SDS011;8830;50.978;5.058;2023-04-15T04:55:59;5.47;;;2.73;;
17424;SDS011;8830;50.978;5.058;2023-04-15T05:02:32;4.20;;;2.70;;
17424;SDS011;8830;50.978;5.058;2023-04-15T05:05:45;3.17;;;2.07;;
17424;SDS011;8830;50.978;5.058;2023-04-15T07:10:38;7.67;;;5.30;;
17424;SDS011;8830;50.978;5.058;2023-04-15T07:13:29;9.63;;;5.50;;
17424;SDS011;8830;50.978;5.058;2023-04-15T07:16:21;5.50;;;4.77;;
17424;SDS011;8830;50.978;5.058;2023-04-15T09:28:59;5.93;;;5.30;;
17424;SDS011;8830;50.978;5.058;2023-04-15T09:31:39;39.17;;;5.73;;
17424;SDS011;8830;50.978;5.058;2023-04-15T09:34:12;6.07;;;4.60;;
17424;SDS011;8830;50.978;5.058;2023-04-15T09:36:50;5.77;;;5.17;;
17424;SDS011;8830;50.978;5.058;2023-04-15T09:42:53;5.23;;;4.83;;
17424;SDS011;8830;50.978;5.058;2023-04-15T09:45:30;5.90;;;4.30;;
17424;SDS011;8830;50.978;5.058;2023-04-15T09:48:35;6.57;;;4.10;;
17424;SDS011;8830;50.978;5.058;2023-04-15T09:51:17;4.43;;;4.00;;
17424;SDS011;8830;50.978;5.058;2023-04-15T09:54:30;4.97;;;4.60;;
17424;SDS011;8830;50.978;5.058;2023-04-15T10:04:27;4.03;;;3.70;;
17424;SDS011;8830;50.978;5.058;2023-04-15T10:07:05;4.63;;;4.30;;
17424;SDS011;8830;50.978;5.058;2023-04-15T10:10:10;5.93;;;4.73;;
17424;SDS011;8830;50.978;5.058;2023-04-15T10:16:36;4.10;;;3.70;;
17424;SDS011;8830;50.978;5.058;2023-04-15T10:23:03;3.50;;;3.20;;
17424;SDS011;8830;50.978;5.058;2023-04-15T10:32:35;2.97;;;2.77;;
17424;SDS011;8830;50.978;5.058;2023-04-15T10:42:14;3.53;;;3.23;;
17424;SDS011;8830;50.978;5.058;2023-04-15T10:44:45;3.07;;;2.87;;
17424;SDS011;8830;50.978;5.058;2023-04-15T10:47:26;6.27;;;3.03;;
17424;SDS011;8830;50.978;5.058;2023-04-15T10:50:13;2.77;;;2.50;;
17424;SDS011;8830;50.978;5.058;2023-04-15T10:52:49;3.10;;;2.10;;
17424;SDS011;8830;50.978;5.058;2023-04-15T10:55:29;4.40;;;2.70;;
17424;SDS011;8830;50.978;5.058;2023-04-15T10:58:14;5.27;;;3.03;;
17424;SDS011;8830;50.978;5.058;2023-04-15T11:00:53;4.10;;;3.10;;
17424;SDS011;8830;50.978;5.058;2023-04-15T11:03:35;1.93;;;1.83;;
17424;SDS011;8830;50.978;5.058;2023-04-15T11:06:42;2.97;;;2.07;;
17424;SDS011;8830;50.978;5.058;2023-04-15T11:09:44;2.30;;;2.07;;
17424;SDS011;8830;50.978;5.058;2023-04-15T11:12:22;2.13;;;1.73;;
17424;SDS011;8830;50.978;5.058;2023-04-15T11:15:32;2.03;;;1.80;;
17424;SDS011;8830;50.978;5.058;2023-04-15T11:21:29;2.97;;;1.50;;
17424;SDS011;8830;50.978;5.058;2023-04-15T11:24:00;1.70;;;1.60;;
17424;SDS011;8830;50.978;5.058;2023-04-15T11:26:29;1.87;;;1.67;;
17424;SDS011;8830;50.978;5.058;2023-04-15T11:29:03;3.77;;;1.53;;
17424;SDS011;8830;50.978;5.058;2023-04-15T11:31:52;3.37;;;1.50;;
17424;SDS011;8830;50.978;5.058;2023-04-15T11:34:30;1.70;;;1.60;;
17424;SDS011;8830;50.978;5.058;2023-04-15T11:43:33;1.60;;;1.30;;
17424;SDS011;8830;50.978;5.058;2023-04-15T11:46:17;2.57;;;1.27;;
17424;SDS011;8830;50.978;5.058;2023-04-15T11:52:34;1.20;;;1.10;;
17424;SDS011;8830;50.978;5.058;2023-04-15T11:55:02;2.10;;;1.60;;
17424;SDS011;8830;50.978;5.058;2023-04-15T11:57:30;1.30;;;1.20;;
17424;SDS011;8830;50.978;5.058;2023-04-15T12:03:12;1.90;;;1.67;;
17424;SDS011;8830;50.978;5.058;2023-04-15T12:09:06;2.50;;;2.07;;
17424;SDS011;8830;50.978;5.058;2023-04-15T12:11:46;3.30;;;2.20;;
17424;SDS011;8830;50.978;5.058;2023-04-15T12:14:35;2.07;;;1.83;;
17424;SDS011;8830;50.978;5.058;2023-04-15T12:17:07;2.60;;;2.40;;
17424;SDS011;8830;50.978;5.058;2023-04-15T12:19:41;2.53;;;2.23;;
17424;SDS011;8830;50.978;5.058;2023-04-15T12:22:47;2.63;;;1.33;;
17424;SDS011;8830;50.978;5.058;2023-04-15T12:25:35;1.40;;;1.00;;
17424;SDS011;8830;50.978;5.058;2023-04-15T12:28:10;1.33;;;1.03;;
17424;SDS011;8830;50.978;5.058;2023-04-15T12:30:59;0.90;;;0.77;;
17424;SDS011;8830;50.978;5.058;2023-04-15T12:33:36;1.73;;;1.10;;
17424;SDS011;8830;50.978;5.058;2023-04-15T12:36:04;1.87;;;1.10;;
17424;SDS011;8830;50.978;5.058;2023-04-15T12:38:47;3.43;;;1.30;;
17424;SDS011;8830;50.978;5.058;2023-04-15T12:41:23;1.10;;;1.10;;
17424;SDS011;8830;50.978;5.058;2023-04-15T12:43:52;4.90;;;1.30;;
17424;SDS011;8830;50.978;5.058;2023-04-15T12:46:20;1.53;;;1.20;;
17424;SDS011;8830;50.978;5.058;2023-04-15T12:48:49;1.90;;;1.40;;
17424;SDS011;8830;50.978;5.058;2023-04-15T12:51:20;2.20;;;1.80;;
17424;SDS011;8830;50.978;5.058;2023-04-15T12:53:57;2.37;;;2.00;;
17424;SDS011;8830;50.978;5.058;2023-04-15T12:56:26;2.53;;;2.00;;
17424;SDS011;8830;50.978;5.058;2023-04-15T12:59:00;2.77;;;1.87;;
17424;SDS011;8830;50.978;5.058;2023-04-15T13:01:42;5.60;;;1.60;;
17424;SDS011;8830;50.978;5.058;2023-04-15T13:04:13;1.57;;;1.47;;
17424;SDS011;8830;50.978;5.058;2023-04-15T13:06:43;2.43;;;1.40;;
17424;SDS011;8830;50.978;5.058;2023-04-15T13:09:10;1.60;;;1.50;;
17424;SDS011;8830;50.978;5.058;2023-04-15T13:11:41;2.50;;;1.33;;
17424;SDS011;8830;50.978;5.058;2023-04-15T13:14:10;1.23;;;1.13;;
17424;SDS011;8830;50.978;5.058;2023-04-15T13:16:41;2.27;;;1.30;;
17424;SDS011;8830;50.978;5.058;2023-04-15T13:19:12;2.70;;;0.90;;
17424;SDS011;8830;50.978;5.058;2023-04-15T13:21:43;1.20;;;1.10;;
17424;SDS011;8830;50.978;5.058;2023-04-15T13:24:11;1.40;;;1.07;;
17424;SDS011;8830;50.978;5.058;2023-04-15T13:27:20;2.30;;;1.03;;
17424;SDS011;8830;50.978;5.058;2023-04-15T13:29:53;2.20;;;1.60;;
17424;SDS011;8830;50.978;5.058;2023-04-15T13:35:45;2.13;;;1.03;;
17424;SDS011;8830;50.978;5.058;2023-04-15T13:38:16;1.50;;;1.40;;
17424;SDS011;8830;50.978;5.058;2023-04-15T13:40:46;1.90;;;1.17;;
17424;SDS011;8830;50.978;5.058;2023-04-15T13:43:25;3.00;;;1.60;;
17424;SDS011;8830;50.978;5.058;2023-04-15T13:45:56;2.17;;;1.00;;
17424;SDS011;8830;50.978;5.058;2023-04-15T13:48:27;1.43;;;1.17;;
17424;SDS011;8830;50.978;5.058;2023-04-15T13:50:57;1.77;;;1.33;;
17424;SDS011;8830;50.978;5.058;2023-04-15T13:57:08;1.30;;;1.20;;
17424;SDS011;8830;50.978;5.058;2023-04-15T13:59:40;2.70;;;1.40;;
17424;SDS011;8830;50.978;5.058;2023-04-15T14:02:16;3.97;;;1.73;;
17424;SDS011;8830;50.978;5.058;2023-04-15T14:04:50;2.83;;;1.30;;
17424;SDS011;8830;50.978;5.058;2023-04-15T14:07:21;1.50;;;1.40;;
17424;SDS011;8830;50.978;5.058;2023-04-15T14:09:52;2.10;;;1.70;;
17424;SDS011;8830;50.978;5.058;2023-04-15T14:12:23;1.83;;;1.27;;
17424;SDS011;8830;50.978;5.058;2023-04-15T14:18:08;1.80;;;1.23;;
17424;SDS011;8830;50.978;5.058;2023-04-15T14:20:50;1.73;;;1.20;;
17424;SDS011;8830;50.978;5.058;2023-04-15T14:23:23;2.03;;;1.27;;
17424;SDS011;8830;50.978;5.058;2023-04-15T14:25:57;2.20;;;1.20;;
17424;SDS011;8830;50.978;5.058;2023-04-15T14:28:27;1.60;;;1.50;;
17424;SDS011;8830;50.978;5.058;2023-04-15T14:31:05;2.27;;;1.93;;
17424;SDS011;8830;50.978;5.058;2023-04-15T14:33:41;2.60;;;1.77;;
17424;SDS011;8830;50.978;5.058;2023-04-15T14:36:15;2.27;;;1.60;;
17424;SDS011;8830;50.978;5.058;2023-04-15T14:38:45;1.93;;;1.70;;
17424;SDS011;8830;50.978;5.058;2023-04-15T14:41:14;1.60;;;1.50;;
17424;SDS011;8830;50.978;5.058;2023-04-15T14:43:47;1.90;;;1.80;;
17424;SDS011;8830;50.978;5.058;2023-04-15T14:46:21;1.70;;;1.60;;
17424;SDS011;8830;50.978;5.058;2023-04-15T14:48:50;1.73;;;1.63;;
17424;SDS011;8830;50.978;5.058;2023-04-15T14:51:27;2.60;;;1.27;;
17424;SDS011;8830;50.978;5.058;2023-04-15T14:53:55;3.33;;;1.33;;
17424;SDS011;8830;50.978;5.058;2023-04-15T15:00:08;1.67;;;1.50;;
17424;SDS011;8830;50.978;5.058;2023-04-15T15:02:45;1.70;;;1.60;;
17424;SDS011;8830;50.978;5.058;2023-04-15T15:08:53;1.80;;;1.30;;
17424;SDS011;8830;50.978;5.058;2023-04-15T15:18:34;2.00;;;1.87;;
17424;SDS011;8830;50.978;5.058;2023-04-15T15:21:03;2.40;;;1.97;;
17424;SDS011;8830;50.978;5.058;2023-04-15T15:23:31;3.73;;;1.53;;
17424;SDS011;8830;50.978;5.058;2023-04-15T15:26:00;2.10;;;1.53;;
17424;SDS011;8830;50.978;5.058;2023-04-15T15:28:44;1.83;;;1.43;;
17424;SDS011;8830;50.978;5.058;2023-04-15T15:31:11;2.77;;;1.40;;
17424;SDS011;8830;50.978;5.058;2023-04-15T15:33:47;9.37;;;1.57;;
17424;SDS011;8830;50.978;5.058;2023-04-15T15:40:16;4.10;;;1.67;;
17424;SDS011;8830;50.978;5.058;2023-04-15T15:42:44;1.57;;;1.47;;
17424;SDS011;8830;50.978;5.058;2023-04-15T15:45:16;7.63;;;2.00;;
17424;SDS011;8830;50.978;5.058;2023-04-15T15:47:44;2.77;;;1.33;;
17424;SDS011;8830;50.978;5.058;2023-04-15T15:50:28;1.10;;;1.00;;
17424;SDS011;8830;50.978;5.058;2023-04-15T15:52:56;1.70;;;1.30;;
17424;SDS011;8830;50.978;5.058;2023-04-15T15:58:15;1.60;;;1.10;;
17424;SDS011;8830;50.978;5.058;2023-04-15T16:00:45;1.43;;;1.00;;
17424;SDS011;8830;50.978;5.058;2023-04-15T16:03:29;2.43;;;1.10;;
17424;SDS011;8830;50.978;5.058;2023-04-15T16:06:21;1.03;;;0.93;;
17424;SDS011;8830;50.978;5.058;2023-04-15T16:08:50;2.73;;;0.73;;
17424;SDS011;8830;50.978;5.058;2023-04-15T16:11:17;3.37;;;0.90;;
17424;SDS011;8830;50.978;5.058;2023-04-15T16:13:46;1.33;;;1.20;;
17424;SDS011;8830;50.978;5.058;2023-04-15T16:16:14;1.70;;;1.20;;
17424;SDS011;8830;50.978;5.058;2023-04-15T16:18:43;2.97;;;1.27;;
17424;SDS011;8830;50.978;5.058;2023-04-15T16:21:13;2.63;;;1.00;;
17424;SDS011;8830;50.978;5.058;2023-04-15T16:23:45;1.60;;;0.80;;
17424;SDS011;8830;50.978;5.058;2023-04-15T16:26:14;2.57;;;1.20;;
17424;SDS011;8830;50.978;5.058;2023-04-15T16:28:45;2.13;;;0.93;;
17424;SDS011;8830;50.978;5.058;2023-04-15T16:31:15;1.90;;;0.93;;
17424;SDS011;8830;50.978;5.058;2023-04-15T16:33:44;2.37;;;0.77;;
17424;SDS011;8830;50.978;5.058;2023-04-15T16:53:39;2.37;;;1.10;;
17424;SDS011;8830;50.978;5.058;2023-04-15T16:56:48;1.27;;;0.90;;
17424;SDS011;8830;50.978;5.058;2023-04-15T17:00:19;1.70;;;1.00;;
17424;SDS011;8830;50.978;5.058;2023-04-15T17:13:13;2.00;;;0.93;;
17424;SDS011;8830;50.978;5.058;2023-04-15T18:37:53;2.27;;;1.53;;
17424;SDS011;8830;50.978;5.058;2023-04-15T18:40:20;2.63;;;1.27;;
17424;SDS011;8830;50.978;5.058;2023-04-15T18:42:47;3.47;;;1.20;;
17424;SDS011;8830;50.978;5.058;2023-04-15T18:45:14;2.20;;;1.20;;
17424;SDS011;8830;50.978;5.058;2023-04-15T18:47:42;2.40;;;1.40;;
17424;SDS011;8830;50.978;5.058;2023-04-15T18:50:09;2.70;;;1.10;;
17424;SDS011;8830;50.978;5.058;2023-04-15T18:52:37;3.60;;;1.23;;
17424;SDS011;8830;50.978;5.058;2023-04-15T18:55:08;1.87;;;1.33;;
17424;SDS011;8830;50.978;5.058;2023-04-15T18:57:36;2.90;;;1.10;;
17424;SDS011;8830;50.978;5.058;2023-04-15T19:00:09;1.90;;;1.50;;
17424;SDS011;8830;50.978;5.058;2023-04-15T19:02:37;4.53;;;2.00;;
17424;SDS011;8830;50.978;5.058;2023-04-15T19:05:06;4.20;;;1.20;;
17424;SDS011;8830;50.978;5.058;2023-04-15T19:07:33;4.30;;;1.40;;
17424;SDS011;8830;50.978;5.058;2023-04-15T19:10:01;3.33;;;1.67;;
17424;SDS011;8830;50.978;5.058;2023-04-15T19:12:30;3.00;;;1.77;;
17424;SDS011;8830;50.978;5.058;2023-04-15T19:14:57;3.03;;;1.70;;
17424;SDS011;8830;50.978;5.058;2023-04-15T19:17:24;6.27;;;2.30;;
17424;SDS011;8830;50.978;5.058;2023-04-15T19:19:51;4.00;;;1.73;;
17424;SDS011;8830;50.978;5.058;2023-04-15T19:22:19;3.57;;;1.60;;
17424;SDS011;8830;50.978;5.058;2023-04-15T19:24:46;5.00;;;2.40;;
17424;SDS011;8830;50.978;5.058;2023-04-15T19:27:16;3.93;;;1.50;;
17424;SDS011;8830;50.978;5.058;2023-04-15T19:29:44;5.03;;;2.00;;
17424;SDS011;8830;50.978;5.058;2023-04-15T19:32:11;4.80;;;1.93;;
17424;SDS011;8830;50.978;5.058;2023-04-15T19:34:38;6.50;;;2.63;;
17424;SDS011;8830;50.978;5.058;2023-04-15T19:37:05;3.13;;;1.80;;
17424;SDS011;8830;50.978;5.058;2023-04-15T19:39:33;2.97;;;1.60;;
17424;SDS011;8830;50.978;5.058;2023-04-15T19:42:00;5.10;;;2.00;;
17424;SDS011;8830;50.978;5.058;2023-04-15T19:44:28;4.47;;;1.37;;
17424;SDS011;8830;50.978;5.058;2023-04-15T19:46:58;2.30;;;1.40;;
17424;SDS011;8830;50.978;5.058;2023-04-15T19:49:26;2.97;;;1.60;;
17424;SDS011;8830;50.978;5.058;2023-04-15T19:51:54;6.50;;;1.63;;
17424;SDS011;8830;50.978;5.058;2023-04-15T19:54:21;7.03;;;1.80;;
17424;SDS011;8830;50.978;5.058;2023-04-15T19:56:48;7.23;;;1.57;;
17424;SDS011;8830;50.978;5.058;2023-04-15T19:59:16;6.50;;;1.63;;
17424;SDS011;8830;50.978;5.058;2023-04-15T20:01:43;3.33;;;1.77;;
17424;SDS011;8830;50.978;5.058;2023-04-15T20:04:12;5.30;;;1.90;;
17424;SDS011;8830;50.978;5.058;2023-04-15T20:06:39;3.23;;;1.60;;
17424;SDS011;8830;50.978;5.058;2023-04-15T20:09:06;3.03;;;1.27;;
17424;SDS011;8830;50.978;5.058;2023-04-15T20:11:33;3.37;;;1.90;;
17424;SDS011;8830;50.978;5.058;2023-04-15T20:14:00;3.07;;;1.80;;
17424;SDS011;8830;50.978;5.058;2023-04-15T20:16:28;6.83;;;1.33;;
17424;SDS011;8830;50.978;5.058;2023-04-15T20:18:55;5.70;;;1.67;;
17424;SDS011;8830;50.978;5.058;2023-04-15T20:21:25;3.90;;;1.90;;
17424;SDS011;8830;50.978;5.058;2023-04-15T20:23:54;2.63;;;1.60;;
17424;SDS011;8830;50.978;5.058;2023-04-15T20:26:24;3.10;;;2.00;;
17424;SDS011;8830;50.978;5.058;2023-04-15T20:28:50;5.63;;;1.70;;
17424;SDS011;8830;50.978;5.058;2023-04-15T20:31:20;6.60;;;1.60;;
17424;SDS011;8830;50.978;5.058;2023-04-15T20:33:48;3.57;;;1.70;;
17424;SDS011;8830;50.978;5.058;2023-04-15T20:36:15;6.07;;;2.00;;
17424;SDS011;8830;50.978;5.058;2023-04-15T20:38:44;2.53;;;1.40;;
17424;SDS011;8830;50.978;5.058;2023-04-15T20:41:12;6.47;;;1.80;;
17424;SDS011;8830;50.978;5.058;2023-04-15T20:43:39;6.23;;;1.90;;
17424;SDS011;8830;50.978;5.058;2023-04-15T20:46:07;5.77;;;1.90;;
17424;SDS011;8830;50.978;5.058;2023-04-15T20:48:33;7.37;;;2.00;;
17424;SDS011;8830;50.978;5.058;2023-04-15T20:51:00;6.43;;;1.70;;
17424;SDS011;8830;50.978;5.058;2023-04-15T20:53:27;8.17;;;2.63;;
17424;SDS011;8830;50.978;5.058;2023-04-15T20:55:56;10.57;;;1.87;;
17424;SDS011;8830;50.978;5.058;2023-04-15T20:58:24;5.00;;;2.07;;
17424;SDS011;8830;50.978;5.058;2023-04-15T21:00:51;6.03;;;2.10;;
17424;SDS011;8830;50.978;5.058;2023-04-15T21:03:18;4.80;;;2.10;;
17424;SDS011;8830;50.978;5.058;2023-04-15T21:05:45;3.60;;;1.57;;
17424;SDS011;8830;50.978;5.058;2023-04-15T21:08:12;5.43;;;1.87;;
17424;SDS011;8830;50.978;5.058;2023-04-15T21:10:39;9.93;;;2.77;;
17424;SDS011;8830;50.978;5.058;2023-04-15T21:13:08;4.57;;;2.10;;
17424;SDS011;8830;50.978;5.058;2023-04-15T21:15:37;8.63;;;2.30;;
17424;SDS011;8830;50.978;5.058;2023-04-15T21:18:05;5.83;;;2.13;;
17424;SDS011;8830;50.978;5.058;2023-04-15T21:20:32;7.93;;;2.13;;
17424;SDS011;8830;50.978;5.058;2023-04-15T21:22:59;7.57;;;2.53;;
17424;SDS011;8830;50.978;5.058;2023-04-15T21:25:26;7.07;;;2.60;;
17424;SDS011;8830;50.978;5.058;2023-04-15T21:27:53;10.50;;;2.67;;
17424;SDS011;8830;50.978;5.058;2023-04-15T21:30:22;5.90;;;2.77;;
17424;SDS011;8830;50.978;5.058;2023-04-15T21:32:49;5.23;;;3.17;;
17424;SDS011;8830;50.978;5.058;2023-04-15T21:35:16;8.07;;;3.40;;
17424;SDS011;8830;50.978;5.058;2023-04-15T21:37:43;4.83;;;2.80;;
17424;SDS011;8830;50.978;5.058;2023-04-15T21:40:11;9.40;;;3.53;;
17424;SDS011;8830;50.978;5.058;2023-04-15T21:42:39;8.57;;;3.57;;
17424;SDS011;8830;50.978;5.058;2023-04-15T21:45:07;6.63;;;3.67;;
17424;SDS011;8830;50.978;5.058;2023-04-15T21:47:35;6.60;;;2.87;;
17424;SDS011;8830;50.978;5.058;2023-04-15T21:50:02;8.80;;;3.00;;
17424;SDS011;8830;50.978;5.058;2023-04-15T21:52:30;5.53;;;2.77;;
17424;SDS011;8830;50.978;5.058;2023-04-15T21:54:57;11.77;;;2.77;;
17424;SDS011;8830;50.978;5.058;2023-04-15T21:57:24;5.83;;;2.83;;
17424;SDS011;8830;50.978;5.058;2023-04-15T21:59:53;4.70;;;2.37;;
17424;SDS011;8830;50.978;5.058;2023-04-15T22:02:20;4.07;;;2.30;;
17424;SDS011;8830;50.978;5.058;2023-04-15T22:04:49;8.07;;;2.00;;
17424;SDS011;8830;50.978;5.058;2023-04-15T22:07:16;7.43;;;2.30;;
17424;SDS011;8830;50.978;5.058;2023-04-15T22:09:43;3.97;;;2.20;;
17424;SDS011;8830;50.978;5.058;2023-04-15T22:12:10;9.00;;;2.60;;
17424;SDS011;8830;50.978;5.058;2023-04-15T22:14:38;5.13;;;2.10;;
17424;SDS011;8830;50.978;5.058;2023-04-15T22:17:05;10.77;;;2.10;;
17424;SDS011;8830;50.978;5.058;2023-04-15T22:19:32;5.50;;;1.90;;
17424;SDS011;8830;50.978;5.058;2023-04-15T22:22:00;7.63;;;2.10;;
17424;SDS011;8830;50.978;5.058;2023-04-15T22:24:29;7.60;;;2.10;;
17424;SDS011;8830;50.978;5.058;2023-04-15T22:26:56;5.53;;;1.90;;
17424;SDS011;8830;50.978;5.058;2023-04-15T22:29:24;6.63;;;2.87;;
17424;SDS011;8830;50.978;5.058;2023-04-15T22:31:51;5.83;;;2.27;;
17424;SDS011;8830;50.978;5.058;2023-04-15T22:34:18;7.90;;;2.50;;
17424;SDS011;8830;50.978;5.058;2023-04-15T22:36:46;6.07;;;2.40;;
17424;SDS011;8830;50.978;5.058;2023-04-15T22:39:15;8.23;;;2.53;;
17424;SDS011;8830;50.978;5.058;2023-04-15T22:41:42;6.17;;;2.60;;
17424;SDS011;8830;50.978;5.058;2023-04-15T22:44:10;10.13;;;2.67;;
17424;SDS011;8830;50.978;5.058;2023-04-15T22:46:37;4.23;;;2.40;;
17424;SDS011;8830;50.978;5.058;2023-04-15T22:49:05;5.30;;;2.37;;
17424;SDS011;8830;50.978;5.058;2023-04-15T22:51:33;7.40;;;2.70;;
17424;SDS011;8830;50.978;5.058;2023-04-15T22:54:02;9.50;;;2.97;;
17424;SDS011;8830;50.978;5.058;2023-04-15T22:56:31;5.20;;;2.70;;
17424;SDS011;8830;50.978;5.058;2023-04-15T22:58:58;8.73;;;3.10;;